Tiempo atmosférico en la estación meteorológica de La Riba de Escalote, Soria (1042 m.)



Fecha
DESCASC
Temp. máxima en grados centígrados (hora)
DESCASC
Temp. mínima en grados centígrados (hora)
DESCASC
Temp. media en grados centígrados
DESCASC
Racha de viento máxima en m/sg (hora)
DESCASC
Velocidad máxima media en intervalos de 10 minutos(hora)
DESCASC
Precipitaciones diarias en mm
DESCASC
Precipitaciones de 00:00 a 06:00 en mm
DESCASC
Precipitaciones de 06:00 a 12:00 en mm
DESCASC
Precipitaciones de 12:00 a 18:00 en mm
DESCASC
Precipitaciones de 18:00 a 24:00 en mm
DESCASC
15-08-2019 30.1 (17:00) 11.1 (07:20) 20.6 12.5 (21:10) 9.72 (21:20) 0 0 0 0 0
14-08-2019 29.5 (17:20) 7.5 (00:00) 18.5 10 (15:10) 6.39 (17:30) 0 0 0 0 0
13-08-2019 24.9 (17:10) 7.1 (00:00) 16 10.83 (17:40) 6.11 (18:30) 0 0 0 0 0
12-08-2019 23.7 (17:50) 9.3 (00:00) 16.5 11.67 (22:00) 8.61 (22:00) 0 0 0 0 0
11-08-2019 24.9 (14:30) 14.9 (00:00) 19.9 15.56 (07:00) 10.56 (07:00) 0 0 0 0 0
10-08-2019 29 (18:00) 13.7 (00:00) 21.3 10.28 (18:20) 7.5 (19:40) 0 0 0 0 0
09-08-2019 29.4 (15:00) 15.1 (00:00) 22.3 17.78 (15:30) 11.11 (20:00) 1.2 0 0 0 1.2
08-08-2019 30.8 (18:10) 13.7 (00:00) 22.2 13.33 (19:20) 9.17 (20:10) 0 0 0 0 0
07-08-2019 26.6 (13:20) 18.4 (00:00) 22.5 13.33 (17:00) 10 (17:10) 0.2 0 0 0.2 0
06-08-2019 32.7 (16:10) 14.2 (00:00) 23.5 13.33 (17:50) 8.89 (18:10) 0 0 0 0 0
05-08-2019 32.8 (16:30) 13.6 (00:00) 23.2 14.44 (17:10) 8.61 (17:00) 0 0 0 0 0
04-08-2019 32.8 (17:30) 13.1 (00:00) 22.9 12.78 (13:20) 8.33 (18:10) 0 0 0 0 0
03-08-2019 32.7 (17:30) 13.4 (00:00) 23.1 13.89 (17:00) 8.61 (13:40) 0 0 0 0 0
02-08-2019 32.4 (18:10) 13.6 (00:00) 23 13.61 (20:40) 10.83 (20:50) 0 0 0 0 0
01-08-2019 29.5 (16:20) 17 (00:00) 23.3 13.33 (21:10) 8.06 (00:30) 11.4 0 0 0 11.4
31-07-2019 30.1 (18:40) 9.3 (00:00) 19.7 13.06 (21:30) 10.56 (20:50) 0 0 0 0 0
30-07-2019 26 (18:30) 11.5 (00:00) 18.8 11.94 (20:40) 9.17 (21:10) 0 0 0 0 0
29-07-2019 29.1 (16:20) 9.9 (00:00) 19.5 11.94 (20:20) 7.5 (20:20) 0 0 0 0 0
28-07-2019 25.9 (18:20) 7.6 (00:00) 16.7 10 (17:40) 5.83 (18:40) 0 0 0 0 0
27-07-2019 20.3 (13:10) 13.1 (00:00) 16.7 16.94 (16:30) 11.94 (16:40) 0.2 0 0.2 0 0
26-07-2019 25.2 (15:30) 16.8 (00:00) 21 16.94 (17:00) 7.5 (17:10) 10.6 0.8 2.2 7.4 0.2
25-07-2019 32.7 (16:40) 22.6 (00:00) 27.7 16.94 (15:50) 10.28 (14:00) 0 0 0 0 0
24-07-2019 34.5 (17:40) 17.5 (00:00) 26 12.5 (15:50) 8.33 (18:50) 0 0 0 0 0
23-07-2019 34.5 (17:10) 19.2 (00:00) 26.9 19.72 (21:50) 12.78 (22:00) 0 0 0 0 0
22-07-2019 34.7 (16:50) 17.9 (00:00) 26.3 12.22 (18:20) 7.78 (18:20) 0 0 0 0 0
21-07-2019 34.6 (17:00) 17.8 (00:00) 26.2 13.06 (20:00) 10 (19:40) 4.4 0 0 0 4.4
20-07-2019 33.9 (17:30) 20.6 (00:00) 27.3 13.61 (16:20) 8.33 (16:40) 0 0 0 0 0
19-07-2019 32.7 (17:10) 12.8 (00:00) 22.8 13.89 (14:40) 8.06 (18:30) 0 0 0 0 0
18-07-2019 29.9 (16:00) 12.4 (00:00) 21.1 11.39 (21:40) 8.89 (21:40) 0 0 0 0 0

Gráficas

Temp. máximas Temp. mínimas Temp. medias Precipitaciones Rachas de viento máximas Velocidades máximas media en intervalos de 10 minutos

Datos horarios

Fecha y hora oficial Temperatura (ºC) Velocidad del viento (km/h) Dirección del viento Racha (km/h) Dirección de racha Precipitación (mm) Presión (hPa) Tendencia (hPa) Humedad (%)
2019-08-16 23:00:00 23.3 7 Oeste 9 Oeste 0 -- -- 37
2019-08-16 22:00:00 26.8 3 Oeste 9 Noroeste 0 -- -- 30
2019-08-16 21:00:00 29.1 8 Noroeste 29 Oeste 0 -- -- 27
2019-08-16 20:00:00 31.6 20 Noroeste 37 Noroeste 0 -- -- 23
2019-08-16 19:00:00 32.6 20 Noroeste 31 Oeste 0 -- -- 23
2019-08-16 18:00:00 31.2 10 Oeste 19 Oeste 0 -- -- 28
2019-08-16 17:00:00 31.3 8 Norte 24 Sudoeste 0 -- -- 30
2019-08-16 16:00:00 31.7 14 Oeste 33 Sudoeste 0 -- -- 29
2019-08-16 15:00:00 30 9 Sur 23 Sudoeste 0 -- -- 32
2019-08-16 14:00:00 29.8 7 Sudoeste 24 Sudoeste 0 -- -- 33
2019-08-16 13:00:00 29.3 11 Sudoeste 25 Sudeste 0 -- -- 34
2019-08-16 12:00:00 27.5 7 Sur 18 Sur 0 -- -- 41
2019-08-16 11:00:00 25.6 9 Sur 18 Sudeste 0 -- -- 49
2019-08-16 10:00:00 21.9 7 Este 13 Este 0 -- -- 53
2019-08-16 09:00:00 17.4 6 Sudeste 9 Sudeste 0 -- -- 64
2019-08-16 08:00:00 13.6 0 Calma 7 Sudeste 0 -- -- 74
2019-08-16 07:00:00 13.3 4 Sudeste 8 Sudeste 0 -- -- 75
2019-08-16 06:00:00 13.5 4 Sudeste 9 Sur 0 -- -- 73
2019-08-16 05:00:00 14.1 3 Sudeste 4 Sudeste 0 -- -- 71
2019-08-16 04:00:00 15.3 0 Calma 4 Nordeste 0 -- -- 66
2019-08-16 03:00:00 16 0 Calma 4 Sur 0 -- -- 65
2019-08-16 02:00:00 16.7 0 Calma 11 Sudeste 0 -- -- 62
2019-08-16 01:00:00 17.7 4 Sudeste 16 Este 0 -- -- 59
2019-08-16 00:00:00 18.4 10 Sudeste 23 Sudeste 0 -- -- 59
2019-08-15 23:00:00 19.7 9 Sudeste 39 Este 0 -- -- 55
2019-08-15 22:00:00 20.9 27 Este 45 Este 0 -- -- 52
2019-08-15 21:00:00 23.7 31 Este 40 Este 0 -- -- 44
2019-08-15 20:00:00 28.8 14 Noroeste 28 Noroeste 0 -- -- 30
2019-08-15 19:00:00 29.8 16 Noroeste 32 Noroeste 0 -- -- 28
2019-08-15 18:00:00 29.5 21 Noroeste 37 Norte 0 -- -- 28
2019-08-15 17:00:00 30.1 21 Noroeste 37 Norte 0 -- -- 27
2019-08-15 16:00:00 29.2 21 Noroeste 33 Oeste 0 -- -- 26
2019-08-15 15:00:00 28.2 20 Noroeste 31 Noroeste 0 -- -- 29
2019-08-15 14:00:00 27.1 16 Norte 26 Norte 0 -- -- 36
2019-08-15 13:00:00 25.5 6 Este 18 Este 0 -- -- 45
2019-08-15 12:00:00 24 8 Este 17 Sudeste 0 -- -- 48
2019-08-15 11:00:00 22.2 8 Sudeste 19 Este 0 -- -- 53
2019-08-15 10:00:00 19.8 11 Este 18 Este 0 -- -- 62
2019-08-15 09:00:00 15.8 3 Nordeste 8 Oeste 0 -- -- 67
2019-08-15 08:00:00 11.8 4 Oeste 7 Oeste 0 -- -- 75
2019-08-15 07:00:00 11.7 3 Sudoeste 6 Sudoeste 0 -- -- 74
2019-08-15 06:00:00 12.6 0 Calma 4 Este 0 -- -- 71
2019-08-15 05:00:00 13.1 0 Calma 6 Este 0 -- -- 67
2019-08-15 04:00:00 13.7 0 Calma 4 Sudeste 0 -- -- 67
2019-08-15 03:00:00 15 0 Calma 6 Oeste 0 -- -- 64
2019-08-15 02:00:00 16.5 0 Calma 4 Este 0 -- -- 59
2019-08-15 01:00:00 18.3 2 Sudeste 9 Sudeste 0 -- -- 55
2019-08-15 00:00:00 20.4 3 Sudeste 11 Este 0 -- -- 50
2019-08-14 23:00:00 21.3 7 Sudeste 19 Sudeste 0 -- -- 45
2019-08-14 22:00:00 23.5 8 Oeste 12 Norte 0 -- -- 29
2019-08-14 21:00:00 26.2 9 Noroeste 26 Norte 0 -- -- 26
2019-08-14 20:00:00 28.1 17 Noroeste 34 Noroeste 0 -- -- 23
2019-08-14 19:00:00 28.8 19 Noroeste 34 Noroeste 0 -- -- 23
2019-08-14 18:00:00 28.9 22 Noroeste 34 Noroeste 0 -- -- 23
2019-08-14 17:00:00 28.6 22 Noroeste 35 Noroeste 0 -- -- 24
2019-08-14 16:00:00 28.5 19 Noroeste 36 Noroeste 0 -- -- 25
2019-08-14 15:00:00 27.4 13 Noroeste 32 Noroeste 0 -- -- 26
2019-08-14 14:00:00 25.8 17 Noroeste 29 Norte 0 -- -- 26
2019-08-14 13:00:00 24.7 12 Noroeste 29 Noroeste 0 -- -- 28
2019-08-14 12:00:00 23.5 12 Norte 22 Noroeste 0 -- -- 30
2019-08-14 11:00:00 22.5 5 Nordeste 15 Nordeste 0 -- -- 33
2019-08-14 10:00:00 17.9 3 Noroeste 8 Nordeste 0 -- -- 49
2019-08-14 09:00:00 12.9 3 Sudeste 5 Sudeste 0 -- -- 61
2019-08-14 08:00:00 8.4 3 Sudeste 8 Sudeste 0 -- -- 75
2019-08-14 07:00:00 8.1 0 Calma 2 Sudoeste 0 -- -- 75
2019-08-14 06:00:00 8.5 0 Calma 5 Sudeste 0 -- -- 73
2019-08-14 05:00:00 9.2 3 Sudeste 4 Este 0 -- -- 71
2019-08-14 04:00:00 9.7 2 Sudeste 5 Sudeste 0 -- -- 70
2019-08-14 03:00:00 11.2 0 Calma 3 Este 0 -- -- 66
2019-08-14 02:00:00 12.6 0 Calma 3 Noroeste 0 -- -- 61
2019-08-14 01:00:00 14.3 4 Sudeste 12 Sudeste 0 -- -- 58
2019-08-14 00:00:00 16.3 4 Sudeste 13 Este 0 -- -- 52
2019-08-13 23:00:00 17.5 6 Este 13 Este 0 -- -- 44
2019-08-13 22:00:00 19.1 5 Norte 19 Noroeste 0 -- -- 27
2019-08-13 21:00:00 21.6 10 Noroeste 30 Noroeste 0 -- -- 23
2019-08-13 20:00:00 23.5 19 Norte 35 Noroeste 0 -- -- 22
2019-08-13 19:00:00 24.5 19 Noroeste 35 Noroeste 0 -- -- 22
2019-08-13 18:00:00 24.7 17 Noroeste 39 Noroeste 0 -- -- 22
2019-08-13 17:00:00 24.7 18 Norte 32 Noroeste 0 -- -- 22
2019-08-13 16:00:00 24.2 17 Noroeste 29 Noroeste 0 -- -- 24
2019-08-13 15:00:00 22.6 13 Noroeste 32 Oeste 0 -- -- 26
2019-08-13 14:00:00 21.5 13 Norte 21 Norte 0 -- -- 28
2019-08-13 13:00:00 19.6 5 Norte 21 Norte 0 -- -- 33
2019-08-13 12:00:00 18 5 Norte 17 Este 0 -- -- 39
2019-08-13 11:00:00 16.4 8 Este 17 Este 0 -- -- 45
2019-08-13 10:00:00 14 9 Este 17 Este 0 -- -- 53
2019-08-13 09:00:00 10.4 3 Este 5 Este 0 -- -- 71
2019-08-13 08:00:00 7.1 0 Calma 4 Sudeste 0 -- -- 81
2019-08-13 07:00:00 8.1 0 Calma 8 Sudeste 0 -- -- 79
2019-08-13 06:00:00 9.1 3 Este 6 Sudeste 0 -- -- 75
2019-08-13 05:00:00 10.6 0 Calma 13 Sudeste 0 -- -- 72
2019-08-13 04:00:00 11 12 Sudeste 19 Sudeste 0 -- -- 72
2019-08-13 03:00:00 11.6 10 Sudeste 16 Este 0 -- -- 69
2019-08-13 02:00:00 12.1 8 Este 17 Este 0 -- -- 67
2019-08-13 01:00:00 12.1 6 Este 13 Nordeste 0 -- -- 68
2019-08-13 00:00:00 12.8 6 Nordeste 35 Nordeste 0 -- -- 66
2019-08-12 23:00:00 13.3 21 Nordeste 39 Nordeste 0 -- -- 63
2019-08-12 22:00:00 15.2 31 Nordeste 42 Este 0 -- -- 56
2019-08-12 21:00:00 17.7 29 Este 39 Este 0 -- -- 42
2019-08-12 20:00:00 20.4 24 Este 35 Este 0 -- -- 36
2019-08-12 19:00:00 22.3 18 Este 26 Este 0 -- -- 31
2019-08-12 18:00:00 23.4 13 Noroeste 23 Norte 0 -- -- 29
2019-08-12 17:00:00 22.5 7 Sudoeste 25 Noroeste 0 -- -- 30
2019-08-12 16:00:00 22.2 13 Noroeste 27 Norte 0 -- -- 32
2019-08-12 15:00:00 20.8 13 Norte 33 Norte 0 -- -- 35
2019-08-12 14:00:00 20.3 12 Nordeste 29 Norte 0 -- -- 39
2019-08-12 13:00:00 18.5 12 Norte 26 Norte 0 -- -- 45
2019-08-12 12:00:00 17.2 13 Norte 22 Norte 0 -- -- 55
2019-08-12 11:00:00 15.1 14 Norte 24 Norte 0 -- -- 65
2019-08-12 10:00:00 12.9 15 Norte 30 Norte 0 -- -- 76
2019-08-12 09:00:00 10.7 22 Noroeste 30 Noroeste 0 -- -- 87
2019-08-12 08:00:00 9.3 7 Norte 15 Norte 0 -- -- 92
2019-08-12 07:00:00 9.6 8 Norte 13 Norte 0 -- -- 89
2019-08-12 06:00:00 10.3 8 Norte 11 Norte 0 -- -- 87
2019-08-12 05:00:00 11.3 0 Calma 6 Oeste 0 -- -- 88
2019-08-12 04:00:00 12.1 3 Este 8 Norte 0 -- -- 85
2019-08-12 03:00:00 12.9 2 Norte 18 Sudeste 0 -- -- 81
2019-08-12 02:00:00 13.7 13 Sudeste 17 Este 0 -- -- 79
2019-08-12 01:00:00 15.4 8 Sudeste 21 Noroeste 0 -- -- 70
2019-08-12 00:00:00 17.7 11 Noroeste 25 Noroeste 0 -- -- 40
2019-08-11 23:00:00 18.6 15 Noroeste 31 Noroeste 0 -- -- 40
2019-08-11 22:00:00 19.4 22 Noroeste 32 Noroeste 0 -- -- 41
2019-08-11 21:00:00 20.3 15 Noroeste 28 Noroeste 0 -- -- 38
2019-08-11 20:00:00 21.5 18 Noroeste 34 Norte 0 -- -- 42
2019-08-11 19:00:00 22.2 25 Noroeste 36 Norte 0 -- -- 42
2019-08-11 18:00:00 23.5 19 Noroeste 37 Noroeste 0 -- -- 39
2019-08-11 17:00:00 23.9 19 Noroeste 39 Noroeste 0 -- -- 39
2019-08-11 16:00:00 24.6 23 Noroeste 41 Noroeste 0 -- -- 38
2019-08-11 15:00:00 24.2 19 Noroeste 31 Noroeste 0 -- -- 39
2019-08-11 14:00:00 23.7 11 Noroeste 22 Noroeste 0 -- -- 40
2019-08-11 13:00:00 22.7 6 Este 23 Noroeste 0 -- -- 42
2019-08-11 12:00:00 21.3 4 Oeste 14 Oeste 0 -- -- 45
2019-08-11 11:00:00 19.7 7 Noroeste 17 Noroeste 0 -- -- 50
2019-08-11 10:00:00 17.4 11 Noroeste 22 Noroeste 0 -- -- 63
2019-08-11 09:00:00 15.7 13 Noroeste 18 Noroeste 0 -- -- 75
2019-08-11 08:00:00 14.9 10 Norte 55 Noroeste 0 -- -- 78
2019-08-11 07:00:00 16.4 38 Noroeste 56 Noroeste 0 -- -- 67
2019-08-11 06:00:00 17 14 Noroeste 27 Noroeste 0 -- -- 58
2019-08-11 05:00:00 16.4 7 Oeste 18 Noroeste 0 -- -- 68
2019-08-11 04:00:00 16.4 6 Oeste 10 Oeste 0 -- -- 73
2019-08-11 03:00:00 16.6 4 Oeste 8 Oeste 0 -- -- 71
2019-08-11 02:00:00 17 6 Oeste 10 Este 0 -- -- 69
2019-08-11 01:00:00 18.7 5 Nordeste 17 Norte 0 -- -- 64
2019-08-11 00:00:00 19.8 8 Noroeste 16 Norte 0 -- -- 52
2019-08-10 23:00:00 22.1 2 Oeste 16 Noroeste 0 -- -- 46
2019-08-10 22:00:00 23.3 13 Oeste 21 Oeste 0 -- -- 40
2019-08-10 21:00:00 25.7 14 Oeste 31 Sudoeste 0 -- -- 27
2019-08-10 20:00:00 26.2 21 Sudoeste 35 Sudoeste 0 -- -- 27
2019-08-10 19:00:00 28.5 24 Sudoeste 37 Sudoeste 0 -- -- 23
2019-08-10 18:00:00 29 22 Sudoeste 35 Sudoeste 0 -- -- 23
2019-08-10 17:00:00 26.9 17 Nordeste 26 Nordeste 0 -- -- 40
2019-08-10 16:00:00 26.7 9 Norte 23 Norte 0 -- -- 44
2019-08-10 15:00:00 24.3 6 Este 21 Norte 0 -- -- 49
2019-08-10 14:00:00 23.1 9 Norte 23 Norte 0 -- -- 54
2019-08-10 13:00:00 21.8 9 Norte 19 Nordeste 0 -- -- 57
2019-08-10 12:00:00 20 10 Norte 19 Norte 0 -- -- 61
2019-08-10 11:00:00 18.9 7 Norte 15 Norte 0 -- -- 64
2019-08-10 10:00:00 16.7 7 Noroeste 14 Noroeste 0 -- -- 69
2019-08-10 09:00:00 15 6 Noroeste 15 Noroeste 0 -- -- 90
2019-08-10 08:00:00 14 4 Noroeste 17 Noroeste 0 -- -- 94
2019-08-10 07:00:00 13.9 8 Noroeste 16 Noroeste 0 -- -- 95
2019-08-10 06:00:00 13.9 8 Noroeste 13 Noroeste 0 -- -- 95
2019-08-10 05:00:00 14 4 Noroeste 7 Noroeste 0 -- -- 94
2019-08-10 04:00:00 14.1 4 Noroeste 9 Norte 0 -- -- 93
2019-08-10 03:00:00 15.1 6 Norte 10 Norte 0 -- -- 89
2019-08-10 02:00:00 15.9 5 Norte 11 Norte 0 -- -- 87
2019-08-10 01:00:00 16 5 Noroeste 8 Norte 0 -- -- 89
2019-08-10 00:00:00 16.5 2 Este 11 Norte 0 -- -- 86
2019-08-09 23:00:00 16.7 6 Norte 21 Noroeste 0 -- -- 85
2019-08-09 22:00:00 17 15 Noroeste 45 Noroeste 0 -- -- 82
2019-08-09 21:00:00 18 34 Noroeste 54 Noroeste 0 -- -- 79
2019-08-09 20:00:00 19.7 40 Noroeste 54 Noroeste 1.2 -- -- 87
2019-08-09 19:00:00 25.6 27 Noroeste 44 Noroeste 0 -- -- 57
2019-08-09 18:00:00 26.8 23 Noroeste 49 Sudoeste 0 -- -- 55
2019-08-09 17:00:00 28.9 31 Sudoeste 50 Sudoeste 0 -- -- 45
2019-08-09 16:00:00 28.5 32 Sudoeste 64 Sudoeste 0 -- -- 46
2019-08-09 15:00:00 29.4 28 Sudoeste 54 Sudoeste 0 -- -- 44
2019-08-09 14:00:00 28.2 32 Sudoeste 48 Sudoeste 0 -- -- 46
2019-08-09 13:00:00 27.4 32 Sudoeste 45 Sudoeste 0 -- -- 44
2019-08-09 12:00:00 26 33 Sudoeste 48 Sudoeste 0 -- -- 49
2019-08-09 11:00:00 24.2 30 Sudoeste 41 Sudoeste 0 -- -- 52
2019-08-09 10:00:00 22.6 27 Sudoeste 39 Sudoeste 0 -- -- 57
2019-08-09 09:00:00 20.7 8 Sudoeste 18 Sur 0 -- -- 61
2019-08-09 08:00:00 16.8 2 Nordeste 9 Oeste 0 -- -- 66
2019-08-09 07:00:00 16 3 Noroeste 8 Sudoeste 0 -- -- 67
2019-08-09 06:00:00 15.8 2 Oeste 8 Sudeste 0 -- -- 67
2019-08-09 05:00:00 16.7 2 Este 5 Sudeste 0 -- -- 64
2019-08-09 04:00:00 17.2 3 Este 10 Sudoeste 0 -- -- 61
2019-08-09 03:00:00 19.1 4 Sudeste 10 Sudeste 0 -- -- 56
2019-08-09 02:00:00 20.8 3 Sudeste 8 Sudeste 0 -- -- 52
2019-08-09 01:00:00 22 3 Norte 10 Oeste 0 -- -- 48
2019-08-09 00:00:00 23.9 6 Oeste 28 Sudoeste 0 -- -- 44
2019-08-08 23:00:00 26 23 Sudoeste 35 Sudoeste 0 -- -- 39
2019-08-08 22:00:00 27 25 Sudoeste 45 Sudoeste 0 -- -- 35
2019-08-08 21:00:00 27.9 28 Sudoeste 48 Sudoeste 0 -- -- 37
2019-08-08 20:00:00 29.2 30 Sudoeste 48 Sudoeste 0 -- -- 38
2019-08-08 19:00:00 29.9 31 Sudoeste 45 Sudoeste 0 -- -- 38
2019-08-08 18:00:00 30.6 25 Sudoeste 43 Oeste 0 -- -- 37
2019-08-08 17:00:00 29.9 26 Sudoeste 48 Sudoeste 0 -- -- 36
2019-08-08 16:00:00 29.8 26 Sudoeste 42 Sudoeste 0 -- -- 36
2019-08-08 15:00:00 29.3 19 Sur 37 Oeste 0 -- -- 37
2019-08-08 14:00:00 28.2 17 Sur 28 Sur 0 -- -- 40
2019-08-08 13:00:00 27 12 Sudoeste 24 Sur 0 -- -- 42
2019-08-08 12:00:00 25 8 Oeste 17 Oeste 0 -- -- 45
2019-08-08 11:00:00 23.6 10 Oeste 19 Oeste 0 -- -- 47
2019-08-08 10:00:00 21.8 5 Oeste 10 Oeste 0 -- -- 52
2019-08-08 09:00:00 19 6 Sudeste 12 Sudeste 0 -- -- 62
2019-08-08 08:00:00 15.1 5 Sudeste 6 Sudeste 0 -- -- 75
2019-08-08 07:00:00 13.9 2 Sudoeste 5 Sur 0 -- -- 75
2019-08-08 06:00:00 14.2 0 Calma 10 Sudeste 0 -- -- 73
2019-08-08 05:00:00 15.2 2 Oeste 9 Sudeste 0 -- -- 69
2019-08-08 04:00:00 15.6 5 Sudeste 10 Sudeste 0 -- -- 68
2019-08-08 03:00:00 16.6 4 Sudeste 14 Oeste 0 -- -- 64
2019-08-08 02:00:00 17 0 Calma 8 Sudoeste 0 -- -- 63
2019-08-08 01:00:00 17.7 2 Sur 13 Oeste 0 -- -- 61
2019-08-08 00:00:00 18.7 9 Oeste 15 Oeste 0 -- -- 58
2019-08-07 23:00:00 19.9 8 Oeste 15 Oeste 0 -- -- 56
2019-08-07 22:00:00 21.1 8 Oeste 31 Oeste 0 -- -- 54
2019-08-07 21:00:00 22.4 24 Oeste 33 Oeste 0 -- -- 50
2019-08-07 20:00:00 22.2 20 Oeste 30 Oeste 0 -- -- 50
2019-08-07 19:00:00 21.9 16 Oeste 39 Oeste 0 -- -- 51
2019-08-07 18:00:00 23.4 23 Sudoeste 48 Sudoeste 0 -- -- 42
2019-08-07 17:00:00 23.7 28 Sudoeste 48 Sudoeste 0 -- -- 39
2019-08-07 16:00:00 23.6 17 Sudoeste 23 Sudoeste 0 -- -- 50
2019-08-07 15:00:00 21.9 13 Oeste 36 Sudoeste 0.2 -- -- 64
2019-08-07 14:00:00 25.9 15 Noroeste 23 Oeste 0 -- -- 41
2019-08-07 13:00:00 26.5 4 Sur 20 Noroeste 0 -- -- 41
2019-08-07 12:00:00 25.3 11 Noroeste 25 Noroeste 0 -- -- 42
2019-08-07 11:00:00 23.9 11 Noroeste 18 Norte 0 -- -- 45
2019-08-07 10:00:00 22.4 9 Norte 22 Noroeste 0 -- -- 48
2019-08-07 09:00:00 20.4 8 Noroeste 12 Noroeste 0 -- -- 55
2019-08-07 08:00:00 19.4 5 Norte 8 Noroeste 0 -- -- 54
2019-08-07 07:00:00 19.8 5 Norte 10 Norte 0 -- -- 52
2019-08-07 06:00:00 20.3 6 Noroeste 10 Noroeste 0 -- -- 50
2019-08-07 05:00:00 21.3 8 Noroeste 13 Noroeste 0 -- -- 47
2019-08-07 04:00:00 21.1 3 Sur 11 Oeste 0 -- -- 46
2019-08-07 03:00:00 22.3 4 Nordeste 16 Noroeste 0 -- -- 43
2019-08-07 02:00:00 22.7 13 Noroeste 21 Oeste 0 -- -- 43
2019-08-07 01:00:00 22.7 12 Oeste 15 Oeste 0 -- -- 42
2019-08-07 00:00:00 23.5 5 Oeste 16 Oeste 0 -- -- 37
2019-08-06 23:00:00 24.7 6 Oeste 16 Oeste 0 -- -- 30
2019-08-06 22:00:00 26.7 11 Oeste 25 Sudoeste 0 -- -- 22
2019-08-06 21:00:00 28.9 17 Sudoeste 42 Sudoeste 0 -- -- 20
2019-08-06 20:00:00 30.5 26 Sudoeste 44 Sudoeste 0 -- -- 18
2019-08-06 19:00:00 31.3 31 Sudoeste 46 Sudoeste 0 -- -- 18
2019-08-06 18:00:00 31.8 31 Sudoeste 48 Sudoeste 0 -- -- 19
2019-08-06 17:00:00 32 25 Sudoeste 43 Sudoeste 0 -- -- 19
2019-08-06 16:00:00 32.1 11 Oeste 27 Sudoeste 0 -- -- 20
2019-08-06 15:00:00 30.5 11 Norte 27 Noroeste 0 -- -- 29
2019-08-06 14:00:00 30.6 19 Sudoeste 35 Sudoeste 0 -- -- 21
2019-08-06 13:00:00 29.5 16 Sudoeste 28 Sudoeste 0 -- -- 23
2019-08-06 12:00:00 28.6 12 Sur 28 Sudeste 0 -- -- 27
2019-08-06 11:00:00 27 7 Nordeste 11 Este 0 -- -- 36
2019-08-06 10:00:00 23.2 2 Noroeste 8 Este 0 -- -- 41
2019-08-06 09:00:00 18 0 Calma 4 Noroeste 0 -- -- 51
2019-08-06 08:00:00 14.8 0 Calma 4 Sudoeste 0 -- -- 56
2019-08-06 07:00:00 14.4 0 Calma 10 Sudeste 0 -- -- 55
2019-08-06 06:00:00 14.6 4 Sudeste 8 Sudeste 0 -- -- 52
2019-08-06 05:00:00 16 4 Sudeste 5 Sudeste 0 -- -- 48
2019-08-06 04:00:00 17.5 4 Sudeste 7 Este 0 -- -- 44
2019-08-06 03:00:00 20.2 3 Sudeste 9 Oeste 0 -- -- 37
2019-08-06 02:00:00 21.7 5 Oeste 15 Oeste 0 -- -- 34
2019-08-06 01:00:00 22.7 10 Oeste 15 Oeste 0 -- -- 31
2019-08-06 00:00:00 23.3 11 Oeste 18 Oeste 0 -- -- 26
2019-08-05 23:00:00 24.5 5 Oeste 22 Sudoeste 0 -- -- 25
2019-08-05 22:00:00 26.8 20 Sudoeste 30 Sudoeste 0 -- -- 22
2019-08-05 21:00:00 29.7 23 Sudoeste 37 Sur 0 -- -- 20
2019-08-05 20:00:00 31.3 28 Sudoeste 40 Sudoeste 0 -- -- 19
2019-08-05 19:00:00 32.2 28 Sudoeste 44 Sur 0 -- -- 19
2019-08-05 18:00:00 32.5 29 Sudoeste 52 Sur 0 -- -- 20
2019-08-05 17:00:00 32.6 31 Sur 46 Sur 0 -- -- 19
2019-08-05 16:00:00 32.2 28 Sudoeste 42 Sudoeste 0 -- -- 20
2019-08-05 15:00:00 31.6 14 Sur 31 Sudoeste 0 -- -- 21
2019-08-05 14:00:00 30.6 21 Sudoeste 37 Sur 0 -- -- 24
2019-08-05 13:00:00 29.8 12 Sudeste 22 Sudeste 0 -- -- 27
2019-08-05 12:00:00 27.1 5 Oeste 13 Este 0 -- -- 35
2019-08-05 11:00:00 26 5 Este 10 Este 0 -- -- 37
2019-08-05 10:00:00 23.6 2 Nordeste 6 Este 0 -- -- 45
2019-08-05 09:00:00 18.1 4 Sudeste 6 Sudeste 0 -- -- 51
2019-08-05 08:00:00 14.8 0 Calma 5 Oeste 0 -- -- 57
2019-08-05 07:00:00 14.4 5 Oeste 18 Sudeste 0 -- -- 58
2019-08-05 06:00:00 14 4 Sudeste 8 Oeste 0 -- -- 50
2019-08-05 05:00:00 15.2 6 Sudeste 9 Sudeste 0 -- -- 49
2019-08-05 04:00:00 16.8 3 Sudeste 6 Sudeste 0 -- -- 39
2019-08-05 03:00:00 18.3 0 Calma 7 Sudeste 0 -- -- 37
2019-08-05 02:00:00 20.6 3 Oeste 9 Nordeste 0 -- -- 32
2019-08-05 01:00:00 22.6 5 Oeste 17 Oeste 0 -- -- 30
2019-08-05 00:00:00 23 2 Noroeste 7 Oeste 0 -- -- 25
2019-08-04 23:00:00 24.9 4 Noroeste 23 Sudoeste 0 -- -- 23
2019-08-04 22:00:00 27.4 18 Sudoeste 29 Sudoeste 0 -- -- 20
2019-08-04 21:00:00 29.7 14 Sudoeste 35 Sudoeste 0 -- -- 19
2019-08-04 20:00:00 31.3 26 Sudoeste 37 Sudoeste 0 -- -- 18
2019-08-04 19:00:00 32.2 25 Sudoeste 44 Sudoeste 0 -- -- 18
2019-08-04 18:00:00 32.6 25 Sudoeste 45 Sur 0 -- -- 18
2019-08-04 17:00:00 32.7 25 Sudoeste 45 Sudoeste 0 -- -- 18
2019-08-04 16:00:00 32.2 25 Sudoeste 46 Sur 0 -- -- 17
2019-08-04 15:00:00 31.5 27 Sudoeste 45 Sudoeste 0 -- -- 20
2019-08-04 14:00:00 30.8 30 Sudoeste 46 Sudoeste 0 -- -- 21
2019-08-04 13:00:00 30.3 22 Sudoeste 35 Sudoeste 0 -- -- 22
2019-08-04 12:00:00 28.5 7 Sudeste 18 Nordeste 0 -- -- 29
2019-08-04 11:00:00 25.5 4 Norte 11 Este 0 -- -- 37
2019-08-04 10:00:00 22 4 Noroeste 7 Norte 0 -- -- 41
2019-08-04 09:00:00 18 0 Calma 4 Este 0 -- -- 41
2019-08-04 08:00:00 14 2 Oeste 8 Sudeste 0 -- -- 52
2019-08-04 07:00:00 13.4 2 Sudeste 6 Sudeste 0 -- -- 50
2019-08-04 06:00:00 14.3 0 Calma 8 Oeste 0 -- -- 47
2019-08-04 05:00:00 14.3 3 Noroeste 12 Este 0 -- -- 46
2019-08-04 04:00:00 15.4 6 Este 12 Sudeste 0 -- -- 41
2019-08-04 03:00:00 17.1 3 Oeste 7 Oeste 0 -- -- 37
2019-08-04 02:00:00 19.5 2 Nordeste 6 Oeste 0 -- -- 31
2019-08-04 01:00:00 21.4 4 Norte 14 Oeste 0 -- -- 26
2019-08-04 00:00:00 23.8 11 Oeste 15 Oeste 0 -- -- 22
2019-08-03 23:00:00 26.7 9 Oeste 27 Oeste 0 -- -- 19
2019-08-03 22:00:00 27.4 18 Oeste 33 Sudoeste 0 -- -- 19
2019-08-03 21:00:00 29.6 23 Sudoeste 36 Sudoeste 0 -- -- 17
2019-08-03 20:00:00 31 26 Sudoeste 42 Sudoeste 0 -- -- 18
2019-08-03 19:00:00 32.2 25 Sudoeste 42 Sudoeste 0 -- -- 17
2019-08-03 18:00:00 32.5 27 Sudoeste 42 Sudoeste 0 -- -- 17
2019-08-03 17:00:00 32.3 29 Sur 50 Sur 0 -- -- 19
2019-08-03 16:00:00 32.2 22 Sudoeste 41 Sudoeste 0 -- -- 22
2019-08-03 15:00:00 31.9 23 Sudoeste 44 Sudoeste 0 -- -- 22
2019-08-03 14:00:00 31.2 27 Sudoeste 43 Sudoeste 0 -- -- 24
2019-08-03 13:00:00 30.1 16 Sur 33 Sudeste 0 -- -- 33
2019-08-03 12:00:00 28.7 23 Sudoeste 35 Sudoeste 0 -- -- 33
2019-08-03 11:00:00 26 25 Sudoeste 37 Sur 0 -- -- 46
2019-08-03 10:00:00 24 24 Sur 37 Sur 0 -- -- 52
2019-08-03 09:00:00 20.9 11 Sudeste 17 Sudeste 0 -- -- 57
2019-08-03 08:00:00 15.5 3 Sudeste 10 Sudeste 0 -- -- 69
2019-08-03 07:00:00 13.6 6 Sudeste 9 Sudeste 0 -- -- 71
2019-08-03 06:00:00 13.9 0 Calma 5 Sudeste 0 -- -- 70
2019-08-03 05:00:00 14.9 2 Sudoeste 5 Noroeste 0 -- -- 67
2019-08-03 04:00:00 16.5 3 Este 10 Sudoeste 0 -- -- 62
2019-08-03 03:00:00 18.4 0 Calma 7 Este 0 -- -- 56
2019-08-03 02:00:00 20 4 Nordeste 13 Sudeste 0 -- -- 52
2019-08-03 01:00:00 20.8 4 Este 23 Este 0 -- -- 50
2019-08-03 00:00:00 21.6 16 Este 34 Este 0 -- -- 52
2019-08-02 23:00:00 23 18 Este 33 Este 0 -- -- 49
2019-08-02 22:00:00 24.5 24 Este 46 Este 0 -- -- 43
2019-08-02 21:00:00 26.5 35 Este 49 Este 0 -- -- 38
2019-08-02 20:00:00 30.2 12 Nordeste 24 Este 0 -- -- 28
2019-08-02 19:00:00 31.4 6 Nordeste 21 Nordeste 0 -- -- 26
2019-08-02 18:00:00 31.8 4 Sudoeste 18 Sur 0 -- -- 26
2019-08-02 17:00:00 31.2 9 Sudeste 21 Oeste 0 -- -- 28
2019-08-02 16:00:00 30.6 5 Noroeste 23 Noroeste 0 -- -- 29
2019-08-02 15:00:00 29.9 8 Sudeste 18 Norte 0 -- -- 30
2019-08-02 14:00:00 29 6 Sur 20 Nordeste 0 -- -- 31
2019-08-02 13:00:00 27.2 4 Norte 21 Nordeste 0 -- -- 35
2019-08-02 12:00:00 25.7 8 Este 18 Nordeste 0 -- -- 52
2019-08-02 11:00:00 23.7 10 Este 17 Sudeste 0 -- -- 61
2019-08-02 10:00:00 20.7 7 Sudeste 13 Sudeste 0 -- -- 73
2019-08-02 09:00:00 17.1 2 Sudeste 4 Sudeste 0 -- -- 86
2019-08-02 08:00:00 14 0 Calma 3 Sudeste 0 -- -- 92
2019-08-02 07:00:00 13.7 3 Sudeste 4 Sudeste 0 -- -- 91
2019-08-02 06:00:00 14.7 0 Calma 4 Sudeste 0 -- -- 90
2019-08-02 05:00:00 15.5 4 Sudeste 5 Sudeste 0 -- -- 89
2019-08-02 04:00:00 16.6 0 Calma 6 Oeste 0 -- -- 86
2019-08-02 03:00:00 17.7 0 Calma 6 Norte 0 -- -- 83
2019-08-02 02:00:00 19.2 0 Calma 10 Este 0 -- -- 77
2019-08-02 01:00:00 19.7 4 Este 17 Nordeste 0 -- -- 76
2019-08-02 00:00:00 20.6 4 Oeste 27 Nordeste 0 -- -- 69
2019-08-01 23:00:00 22.2 18 Este 30 Nordeste 0 -- -- 62
2019-08-01 22:00:00 23.7 10 Norte 48 Sudoeste -- -- -- 47
2019-08-01 21:00:00 25.4 19 Oeste 45 Sudoeste -- -- -- --
2019-08-01 20:00:00 26.3 6 Nordeste 31 Sur 0 -- -- 39
2019-08-01 19:00:00 28.8 5 Este 10 Este 0 -- -- 31
2019-08-01 18:00:00 27.8 2 Sudoeste 48 Noroeste 0 -- -- 35
2019-08-01 17:00:00 28.1 12 Oeste 30 Noroeste 0 -- -- 30
2019-08-01 16:00:00 28.5 4 Noroeste 18 Nordeste 0 -- -- 32
2019-08-01 15:00:00 27.5 6 Noroeste 30 Oeste 0 -- -- 38
2019-08-01 14:00:00 28.8 18 Sur 35 Sur 0 -- -- 36
2019-08-01 13:00:00 27.1 15 Sur 26 Sur 0 -- -- 42
2019-08-01 12:00:00 25.1 18 Sur 32 Sur 0 -- -- 47
2019-08-01 11:00:00 22.8 20 Sur 32 Sudoeste 0 -- -- 53
2019-08-01 10:00:00 21.2 19 Sur 32 Sur 0 -- -- 56
2019-08-01 09:00:00 19.9 16 Sur 26 Sudeste 0 -- -- 59
2019-08-01 08:00:00 18.3 8 Sur 17 Sur 0 -- -- 64
2019-08-01 07:00:00 17.2 6 Este 18 Sudeste 0 -- -- 82
2019-08-01 06:00:00 18 13 Sudeste 21 Sudeste 0 -- -- 80
2019-08-01 05:00:00 18.6 17 Sudeste 24 Sudeste 0 -- -- 78
2019-08-01 04:00:00 19.2 11 Sudeste 18 Sudeste 0 -- -- 76
2019-08-01 03:00:00 19.6 14 Sudeste 22 Sudeste 0 -- -- 74
2019-08-01 02:00:00 20.4 6 Sudeste 24 Sudeste 0 -- -- 69
2019-08-01 01:00:00 21.2 19 Sudeste 41 Sudeste 0 -- -- 64
2019-08-01 00:00:00 21.7 25 Sudeste 39 Este 0 -- -- 54
2019-07-31 23:00:00 22.1 31 Este 42 Sudeste 0 -- -- 46
2019-07-31 22:00:00 23.1 30 Sudeste 47 Sudeste 0 -- -- 43
2019-07-31 21:00:00 24.4 34 Sudeste 46 Sudeste 0 -- -- 41
2019-07-31 20:00:00 26.6 31 Sudeste 44 Sudeste 0 -- -- 37
2019-07-31 19:00:00 29.9 22 Sudoeste 38 Sudoeste 0 -- -- 30
2019-07-31 18:00:00 29.8 21 Sudoeste 38 Sudoeste 0 -- -- 33
2019-07-31 17:00:00 29.9 21 Sudoeste 39 Sudoeste 0 -- -- 31
2019-07-31 16:00:00 29.4 17 Sudoeste 37 Sudoeste 0 -- -- 30
2019-07-31 15:00:00 27.3 22 Este 36 Este 0 -- -- 35
2019-07-31 14:00:00 25.8 19 Este 31 Este 0 -- -- 40
2019-07-31 13:00:00 23.6 18 Este 29 Este 0 -- -- 43
2019-07-31 12:00:00 21 18 Este 30 Este 0 -- -- 45
2019-07-31 11:00:00 19 22 Este 31 Este 0 -- -- 48
2019-07-31 10:00:00 17.1 19 Este 25 Este 0 -- -- 53
2019-07-31 09:00:00 12.5 2 Noroeste 5 Este 0 -- -- 74
2019-07-31 08:00:00 9.8 2 Sur 7 Sudeste 0 -- -- 84
2019-07-31 07:00:00 9.6 2 Sur 5 Sudeste 0 -- -- 82
2019-07-31 06:00:00 9.9 0 Calma 6 Este 0 -- -- 80
2019-07-31 05:00:00 10.6 3 Nordeste 8 Este 0 -- -- 77
2019-07-31 04:00:00 10.9 4 Nordeste 7 Nordeste 0 -- -- 77
2019-07-31 03:00:00 11.4 0 Calma 11 Este 0 -- -- 76
2019-07-31 02:00:00 11.9 6 Sudeste 25 Este 0 -- -- 74
2019-07-31 01:00:00 12.9 13 Este 19 Este 0 -- -- 71
2019-07-31 00:00:00 13.7 17 Este 27 Este 0 -- -- 68
2019-07-30 23:00:00 15.1 20 Este 33 Este 0 -- -- 62
2019-07-30 22:00:00 17.8 21 Este 42 Este 0 -- -- 50
2019-07-30 21:00:00 20.4 25 Este 43 Este 0 -- -- 45
2019-07-30 20:00:00 24.7 12 Nordeste 19 Nordeste 0 -- -- 28
2019-07-30 19:00:00 25.4 9 Noroeste 20 Norte 0 -- -- 28
2019-07-30 18:00:00 25.4 6 Noroeste 22 Noroeste 0 -- -- 28
2019-07-30 17:00:00 24.8 11 Noroeste 21 Noroeste 0 -- -- 28
2019-07-30 16:00:00 23.6 10 Noroeste 19 Este 0 -- -- 30
2019-07-30 15:00:00 22.6 8 Nordeste 25 Norte 0 -- -- 33
2019-07-30 14:00:00 21.4 6 Norte 22 Norte 0 -- -- 36
2019-07-30 13:00:00 20.2 11 Nordeste 22 Noroeste 0 -- -- 41
2019-07-30 12:00:00 18.4 14 Norte 27 Norte 0 -- -- 48
2019-07-30 11:00:00 16.3 13 Norte 24 Norte 0 -- -- 58
2019-07-30 10:00:00 14.9 15 Norte 30 Noroeste 0 -- -- 58
2019-07-30 09:00:00 13 21 Noroeste 34 Noroeste 0 -- -- 62
2019-07-30 08:00:00 11.6 9 Noroeste 19 Noroeste 0 -- -- 66
2019-07-30 07:00:00 12 6 Norte 23 Noroeste 0 -- -- 67
2019-07-30 06:00:00 12.8 16 Noroeste 21 Noroeste 0 -- -- 63
2019-07-30 05:00:00 13.9 18 Noroeste 30 Noroeste 0 -- -- 59
2019-07-30 04:00:00 14.7 18 Noroeste 28 Noroeste 0 -- -- 59
2019-07-30 03:00:00 15.4 17 Oeste 32 Oeste 0 -- -- 53
2019-07-30 02:00:00 16.9 24 Noroeste 34 Noroeste 0 -- -- 42
2019-07-30 01:00:00 17.7 14 Noroeste 23 Noroeste 0 -- -- 36
2019-07-30 00:00:00 19 15 Noroeste 35 Noroeste 0 -- -- 34
2019-07-29 23:00:00 20.7 20 Noroeste 33 Noroeste 0 -- -- 32
2019-07-29 22:00:00 22.2 22 Noroeste 37 Noroeste 0 -- -- 31
2019-07-29 21:00:00 24.3 21 Noroeste 43 Norte 0 -- -- 28
2019-07-29 20:00:00 25.2 23 Noroeste 40 Noroeste 0 -- -- 37
2019-07-29 19:00:00 26.4 23 Noroeste 40 Noroeste 0 -- -- 31
2019-07-29 18:00:00 27.7 12 Oeste 32 Norte 0 -- -- 27
2019-07-29 17:00:00 28 14 Norte 29 Norte 0 -- -- 27
2019-07-29 16:00:00 27.8 14 Noroeste 24 Noroeste 0 -- -- 31
2019-07-29 15:00:00 27.2 13 Norte 26 Norte 0 -- -- 33
2019-07-29 14:00:00 26.3 13 Norte 28 Nordeste 0 -- -- 32
2019-07-29 13:00:00 26.2 10 Nordeste 26 Norte 0 -- -- 31
2019-07-29 12:00:00 23.9 11 Nordeste 19 Nordeste 0 -- -- 33
2019-07-29 11:00:00 22.3 11 Nordeste 18 Nordeste 0 -- -- 38
2019-07-29 10:00:00 18.9 3 Nordeste 10 Norte 0 -- -- 49
2019-07-29 09:00:00 13.5 0 Calma 5 Oeste 0 -- -- 60
2019-07-29 08:00:00 10.4 3 Oeste 6 Noroeste 0 -- -- 74
2019-07-29 07:00:00 9.9 0 Calma 5 Sudeste 0 -- -- 72
2019-07-29 06:00:00 10.5 0 Calma 3 Noroeste 0 -- -- 73
2019-07-29 05:00:00 10.9 0 Calma 9 Sudeste 0 -- -- 69
2019-07-29 04:00:00 11.7 0 Calma 6 Sudeste 0 -- -- 63
2019-07-29 03:00:00 13 0 Calma 5 Sudoeste 0 -- -- 60
2019-07-29 02:00:00 14 0 Calma 8 Sudeste 0 -- -- 54
2019-07-29 01:00:00 15.2 0 Calma 13 Este 0 -- -- 48
2019-07-29 00:00:00 16.7 0 Calma 8 Oeste 0 -- -- 45
2019-07-28 23:00:00 19 4 Oeste 8 Noroeste 0 -- -- 35
2019-07-28 22:00:00 20.7 8 Noroeste 20 Norte 0 -- -- 30
2019-07-28 21:00:00 23.5 13 Noroeste 30 Noroeste 0 -- -- 27
2019-07-28 20:00:00 25.1 16 Norte 31 Noroeste 0 -- -- 25
2019-07-28 19:00:00 25.7 17 Norte 32 Norte 0 -- -- 27
2019-07-28 18:00:00 25.6 18 Norte 36 Noroeste 0 -- -- 28
2019-07-28 17:00:00 25 14 Noroeste 28 Norte 0 -- -- 29
2019-07-28 16:00:00 24.2 14 Noroeste 27 Noroeste 0 -- -- 29
2019-07-28 15:00:00 22.7 12 Norte 24 Oeste 0 -- -- 34
2019-07-28 14:00:00 21.9 8 Nordeste 20 Noroeste 0 -- -- 41
2019-07-28 13:00:00 19.8 9 Norte 17 Norte 0 -- -- 48
2019-07-28 12:00:00 18 6 Sur 19 Noroeste 0 -- -- 58
2019-07-28 11:00:00 16.5 7 Este 13 Este 0 -- -- 66
2019-07-28 10:00:00 14.1 4 Nordeste 8 Nordeste 0 -- -- 76
2019-07-28 09:00:00 10.7 0 Calma 5 Noroeste 0 -- -- 92
2019-07-28 08:00:00 8.4 0 Calma 8 Sudeste 0 -- -- 95
2019-07-28 07:00:00 7.7 5 Sudeste 8 Sudeste 0 -- -- 94
2019-07-28 06:00:00 8.2 5 Oeste 8 Oeste 0 -- -- 94
2019-07-28 05:00:00 9.1 0 Calma 5 Oeste 0 -- -- 91
2019-07-28 04:00:00 9.5 0 Calma 5 Noroeste 0 -- -- 90
2019-07-28 03:00:00 10.3 4 Oeste 8 Oeste 0 -- -- 88
2019-07-28 02:00:00 11.4 3 Norte 9 Nordeste 0 -- -- 82
2019-07-28 01:00:00 12.1 5 Este 11 Nordeste 0 -- -- 81
2019-07-28 00:00:00 13.1 5 Este 10 Este 0 -- -- 81
2019-07-27 23:00:00 14.1 7 Nordeste 21 Nordeste 0 -- -- 77
2019-07-26 12:00:00 23.2 9 Este 19 Nordeste 0 -- -- 63
2019-07-26 11:00:00 22.4 11 Nordeste 17 Nordeste 0 -- -- 64
2019-07-26 10:00:00 19.3 5 Noroeste 18 Oeste 0 -- -- 76
2019-07-26 09:00:00 17.5 16 Sudeste 32 Sudeste 2.2 -- -- 82
2019-07-26 08:00:00 18.2 8 Sudeste 14 Nordeste 0 -- -- 77
2019-07-26 07:00:00 18.3 8 Noroeste 20 Este 0 -- -- 77
2019-07-26 06:00:00 18.8 4 Nordeste 13 Noroeste 0 -- -- 76
2019-07-26 05:00:00 19.8 5 Noroeste 33 Oeste 0.8 -- -- 69
2019-07-26 04:00:00 21.3 12 Oeste 17 Oeste 0 -- -- 50
2019-07-26 03:00:00 22 9 Oeste 21 Oeste 0 -- -- 50
2019-07-26 02:00:00 23.7 0 Calma 10 Noroeste 0 -- -- 35
2019-07-26 01:00:00 23.8 5 Noroeste 13 Oeste 0 -- -- 35
2019-07-26 00:00:00 24.3 3 Noroeste 12 Noroeste 0 -- -- 32
2019-07-25 23:00:00 25.3 8 Oeste 15 Oeste 0 -- -- 30
2019-07-25 22:00:00 27.2 11 Oeste 24 Oeste 0 -- -- 27
2019-07-25 21:00:00 30.3 18 Oeste 41 Sudoeste 0 -- -- 24
2019-07-25 20:00:00 31.2 28 Oeste 39 Oeste 0 -- -- 24
2019-07-25 19:00:00 32.2 29 Oeste 45 Sudoeste 0 -- -- 22
2019-07-25 18:00:00 31.7 30 Sudoeste 56 Sudoeste 0 -- -- 22
2019-07-25 17:00:00 32.4 33 Sudoeste 51 Sudoeste 0 -- -- 23
2019-07-25 16:00:00 32 28 Sudoeste 61 Sudoeste 0 -- -- 24
2019-07-25 15:00:00 31.9 26 Sudoeste 53 Sudoeste 0 -- -- 25
2019-07-25 14:00:00 30.7 37 Sudoeste 54 Sudoeste 0 -- -- 26
2019-07-25 13:00:00 30.5 26 Sudoeste 40 Sudoeste 0 -- -- 30
2019-07-25 12:00:00 29.8 21 Sur 32 Sur 0 -- -- 31
2019-07-25 11:00:00 27.6 15 Sur 28 Sur 0 -- -- 34
2019-07-25 10:00:00 26 15 Sur 33 Sudoeste 0 -- -- 35
2019-07-25 09:00:00 24.7 22 Sur 31 Sur 0 -- -- 36
2019-07-25 08:00:00 23 6 Oeste 42 Sudoeste 0 -- -- 38
2019-07-25 07:00:00 22.8 35 Sudoeste 46 Sudoeste 0 -- -- 38
2019-07-25 06:00:00 23.4 33 Sudoeste 42 Sudoeste 0 -- -- 37
2019-07-25 05:00:00 23 28 Sudoeste 36 Sudoeste 0 -- -- 39
2019-07-25 04:00:00 23.9 21 Sudoeste 35 Sudoeste 0 -- -- 38
2019-07-25 03:00:00 25 22 Sudoeste 33 Sudoeste 0 -- -- 36
2019-07-25 02:00:00 24.8 16 Sudoeste 24 Sur 0 -- -- 36
2019-07-25 01:00:00 26.2 18 Sudoeste 34 Sur 0 -- -- 30
2019-07-25 00:00:00 24.8 17 Sur 22 Sudoeste 0 -- -- 32
2019-07-24 23:00:00 26.5 4 Noroeste 16 Sudoeste 0 -- -- 29
2019-07-24 22:00:00 29.3 15 Sudoeste 21 Sudoeste 0 -- -- 25
2019-07-24 21:00:00 31.7 14 Sur 35 Sudoeste 0 -- -- 23
2019-07-24 20:00:00 33 19 Sur 42 Sudoeste 0 -- -- 21
2019-07-24 19:00:00 33.5 21 Sudoeste 45 Sur 0 -- -- 21
2019-07-24 18:00:00 34.2 16 Sudoeste 38 Sudoeste 0 -- -- 20
2019-07-24 17:00:00 34.1 22 Sur 40 Sur 0 -- -- 21
2019-07-24 16:00:00 33.4 24 Sudoeste 45 Sudoeste 0 -- -- 23
2019-07-24 15:00:00 33.1 21 Sudoeste 39 Sur 0 -- -- 24
2019-07-24 14:00:00 32.4 20 Sudoeste 35 Sudoeste 0 -- -- 24
2019-07-24 13:00:00 31.3 21 Sudoeste 37 Sudoeste 0 -- -- 26
2019-07-24 12:00:00 29.6 24 Sur 35 Sur 0 -- -- 27
2019-07-24 11:00:00 28.5 24 Sur 32 Sur 0 -- -- 29
2019-07-24 10:00:00 25.1 8 Este 12 Este 0 -- -- 42
2019-07-24 09:00:00 20.1 3 Sudeste 11 Este 0 -- -- 56
2019-07-24 08:00:00 17.8 6 Sudeste 8 Sudeste 0 -- -- 63
2019-07-24 07:00:00 18.1 2 Oeste 12 Sudeste 0 -- -- 64
2019-07-24 06:00:00 18.9 3 Oeste 9 Oeste 0 -- -- 61
2019-07-24 05:00:00 19.6 6 Sudeste 13 Sudeste 0 -- -- 57
2019-07-24 04:00:00 20.7 3 Este 17 Sudoeste 0 -- -- 54
2019-07-24 03:00:00 22.2 10 Oeste 15 Noroeste 0 -- -- 50
2019-07-24 02:00:00 23.1 5 Norte 9 Nordeste 0 -- -- 42
2019-07-24 01:00:00 23.6 9 Oeste 27 Sudoeste 0 -- -- 41
2019-07-24 00:00:00 24.5 3 Noroeste 24 Sur 0 -- -- 37
2019-07-23 23:00:00 25.7 21 Sur 59 Sudoeste 0 -- -- 36
2019-07-23 22:00:00 27 46 Sudoeste 71 Sudoeste 0 -- -- 36
2019-07-23 21:00:00 31.4 18 Sur 39 Sudoeste 0 -- -- 23
2019-07-23 20:00:00 33.2 23 Sur 41 Sudoeste 0 -- -- 22
2019-07-23 19:00:00 33.9 28 Sur 54 Sur 0 -- -- 21
2019-07-23 18:00:00 34.1 30 Sur 55 Sur 0 -- -- 18
2019-07-23 17:00:00 34.4 25 Sur 42 Sur 0 -- -- 21
2019-07-23 16:00:00 33.9 25 Sur 70 Oeste 0 -- -- 21
2019-07-23 15:00:00 32.6 26 Sudoeste 47 Sudoeste 0 -- -- 22
2019-07-23 14:00:00 32.2 18 Sudoeste 37 Sur 0 -- -- 22
2019-07-23 13:00:00 30.7 22 Sudeste 35 Sudeste 0 -- -- 23
2019-07-23 12:00:00 29.1 12 Este 20 Nordeste 0 -- -- 27
2019-07-23 11:00:00 27.2 11 Nordeste 24 Norte 0 -- -- 32
2019-07-23 10:00:00 26.1 5 Sudoeste 14 Sur 0 -- -- 28
2019-07-23 09:00:00 23.9 7 Noroeste 22 Sudoeste 0 -- -- 32
2019-07-23 08:00:00 23.3 15 Sur 25 Sur 0 -- -- 31
2019-07-23 07:00:00 19.2 8 Sudeste 15 Sudeste 0 -- -- 42
2019-07-23 06:00:00 21 8 Sudeste 19 Sudoeste 0 -- -- 38
2019-07-23 05:00:00 23.6 14 Sudoeste 30 Sudoeste 0 -- -- 32
2019-07-23 04:00:00 24.3 21 Sudoeste 30 Sudoeste 0 -- -- 34
2019-07-23 03:00:00 24.2 14 Sudoeste 26 Sudoeste 0 -- -- 37
2019-07-23 02:00:00 25 14 Sudoeste 37 Sudoeste 0 -- -- 36
2019-07-23 01:00:00 25.6 23 Sur 31 Sudoeste 0 -- -- 37
2019-07-23 00:00:00 26.2 21 Sur 26 Sur 0 -- -- 37
2019-07-22 23:00:00 27.4 16 Sur 23 Sur 0 -- -- 34
2019-07-22 22:00:00 29.3 13 Sur 31 Sur 0 -- -- 29
2019-07-22 21:00:00 32.1 25 Sudoeste 39 Sur 0 -- -- 24
2019-07-22 20:00:00 33.5 22 Sur 36 Sur 0 -- -- 21
2019-07-22 19:00:00 34 21 Sur 44 Sur 0 -- -- 21
2019-07-22 18:00:00 34.5 22 Sudoeste 39 Sudoeste 0 -- -- 21
2019-07-22 17:00:00 34.4 22 Sur 39 Sudoeste 0 -- -- 20
2019-07-22 16:00:00 34 27 Sur 40 Sur 0 -- -- 20
2019-07-22 15:00:00 33.1 24 Sudeste 41 Sudeste 0 -- -- 19
2019-07-22 14:00:00 32.1 25 Sur 36 Sudeste 0 -- -- 19
2019-07-22 13:00:00 30.9 23 Sudeste 36 Sudeste 0 -- -- 21
2019-07-22 12:00:00 29.7 20 Sur 33 Sudeste 0 -- -- 22
2019-07-22 11:00:00 28.3 17 Sur 28 Sudeste 0 -- -- 23
2019-07-22 10:00:00 26 17 Sudeste 21 Sudeste 0 -- -- 30
2019-07-22 09:00:00 21.4 10 Este 14 Sudeste 0 -- -- 46
2019-07-22 08:00:00 18.2 8 Este 14 Este 0 -- -- 59
2019-07-22 07:00:00 18.6 5 Sudeste 15 Sur 0 -- -- 57
2019-07-22 06:00:00 20.8 13 Sur 26 Sur 0 -- -- 45
2019-07-22 05:00:00 21.6 22 Sur 33 Sudoeste 0 -- -- 43
2019-07-22 04:00:00 23.5 27 Sudoeste 35 Sudoeste 0 -- -- 40
2019-07-22 03:00:00 23.2 24 Sur 31 Sur 0 -- -- 49
2019-07-22 02:00:00 23.2 25 Sur 31 Sudeste 0 -- -- 51
2019-07-22 01:00:00 22.7 12 Sudeste 25 Sudeste 0 -- -- 59
2019-07-22 00:00:00 22.7 18 Sudeste 29 Este 0 -- -- 64
2019-07-21 23:00:00 23.2 24 Este 87 Este 4.4 -- -- 62
2019-07-21 22:00:00 27.6 20 Sudeste 34 Sudeste 0 -- -- 40
2019-07-21 21:00:00 29.7 20 Sudeste 38 Sudeste 0 -- -- 35
2019-07-21 20:00:00 30.5 34 Sudeste 47 Sudeste 0 -- -- 35
2019-07-21 19:00:00 34.3 21 Sudoeste 36 Sudoeste 0 -- -- 25
2019-07-21 18:00:00 34.3 23 Sudoeste 37 Sudoeste 0 -- -- 25
2019-07-21 17:00:00 34.6 15 Sudoeste 31 Sur 0 -- -- 26
2019-07-21 16:00:00 34.1 13 Sudoeste 32 Sudeste 0 -- -- 26
2019-07-21 15:00:00 33.3 13 Sudeste 23 Sudoeste 0 -- -- 28
2019-07-21 14:00:00 32.1 9 Sudeste 24 Sur 0 -- -- 30
2019-07-21 13:00:00 30.6 11 Sur 24 Sudeste 0 -- -- 33
2019-07-21 12:00:00 28.7 14 Sudeste 27 Sudeste 0 -- -- 37
2019-07-21 11:00:00 26.3 11 Sur 26 Este 0 -- -- 41
2019-07-21 10:00:00 23.6 19 Sudeste 24 Este 0 -- -- 55
2019-07-21 09:00:00 21 18 Sudeste 25 Sudeste 0 -- -- 67
2019-07-21 08:00:00 18.8 19 Sudeste 25 Sudeste 0 -- -- 75
2019-07-21 07:00:00 18.1 10 Sudeste 14 Sudeste 0 -- -- 73
2019-07-21 06:00:00 18.7 6 Sudeste 11 Sudeste 0 -- -- 68
2019-07-21 05:00:00 19.3 4 Este 15 Sur 0 -- -- 69
2019-07-21 04:00:00 19.2 10 Sur 14 Sudeste 0 -- -- 74
2019-07-21 03:00:00 20.8 3 Sudeste 10 Sur 0 -- -- 69
2019-07-21 02:00:00 22.3 4 Nordeste 17 Nordeste 0 -- -- 65
2019-07-21 01:00:00 23.2 10 Este 18 Nordeste 0 -- -- 61
2019-07-21 00:00:00 25 2 Noroeste 14 Nordeste 0 -- -- 50
2019-07-20 23:00:00 26.2 10 Nordeste 16 Nordeste 0 -- -- 45
2019-07-20 22:00:00 27.8 6 Norte 9 Nordeste 0 -- -- 36
2019-07-20 21:00:00 29.8 4 Noroeste 13 Noroeste 0 -- -- 31
2019-07-20 20:00:00 30.7 10 Noroeste 29 Oeste 0 -- -- 30
2019-07-20 19:00:00 32.6 21 Oeste 37 Sudoeste 0 -- -- 27
2019-07-20 18:00:00 33.8 21 Sudoeste 48 Sudoeste 0 -- -- 23
2019-07-20 17:00:00 33.7 24 Sudoeste 49 Sudoeste 0 -- -- 24
2019-07-20 16:00:00 32.9 21 Sudoeste 48 Sudoeste 0 -- -- 26
2019-07-20 15:00:00 32.7 21 Sur 40 Sur 0 -- -- 27
2019-07-20 14:00:00 31.5 19 Sudoeste 31 Sur 0 -- -- 31
2019-07-20 13:00:00 29.6 9 Sur 26 Sur 0 -- -- 35
2019-07-20 12:00:00 27.9 18 Sudoeste 31 Sur 0 -- -- 38
2019-07-20 11:00:00 26.3 18 Sudoeste 34 Sudoeste 0 -- -- 41
2019-07-20 10:00:00 24.8 21 Sudoeste 31 Sudoeste 0 -- -- 46
2019-07-20 09:00:00 23 21 Sudoeste 34 Sur 0 -- -- 49
2019-07-20 08:00:00 21.4 25 Sur 41 Sudoeste 0 -- -- 50
2019-07-20 07:00:00 20.7 19 Sur 35 Sur 0 -- -- 48
2019-07-20 06:00:00 21.9 27 Sur 35 Sudoeste 0 -- -- 40
2019-07-20 05:00:00 22.8 28 Sur 35 Sur 0 -- -- 35
2019-07-20 04:00:00 22.9 23 Sudoeste 30 Sudoeste 0 -- -- 34
2019-07-20 03:00:00 24.1 23 Sudoeste 32 Sudoeste 0 -- -- 32
2019-07-20 02:00:00 24.9 23 Sudoeste 32 Sudoeste 0 -- -- 32
2019-07-20 01:00:00 24.6 6 Sudoeste 23 Sudeste 0 -- -- 36
2019-07-20 00:00:00 24.4 18 Sudeste 25 Sudeste 0 -- -- 42
2019-07-19 23:00:00 25.4 5 Este 19 Sudoeste 0 -- -- 35
2019-07-19 22:00:00 28.4 15 Sudoeste 24 Sudoeste 0 -- -- 28
2019-07-19 21:00:00 27.9 9 Sudeste 19 Norte 0 -- -- 34
2019-07-19 20:00:00 30.6 15 Oeste 41 Oeste 0 -- -- 25
2019-07-19 19:00:00 31.5 25 Oeste 46 Sudoeste 0 -- -- 25
2019-07-19 18:00:00 31.9 24 Sudoeste 41 Sudoeste 0 -- -- 25
2019-07-19 17:00:00 32.1 24 Sudoeste 42 Oeste 0 -- -- 26
2019-07-19 16:00:00 30.8 22 Sudoeste 44 Sudoeste 0 -- -- 29
2019-07-19 15:00:00 31.8 27 Sudoeste 50 Sudoeste 0 -- -- 27
2019-07-19 14:00:00 31.5 22 Sur 41 Sudoeste 0 -- -- 32
2019-07-19 13:00:00 30 9 Sur 23 Sur 0 -- -- 33
2019-07-19 12:00:00 27.3 14 Sur 25 Sur 0 -- -- 42
2019-07-19 11:00:00 25.9 10 Sur 21 Sudeste 0 -- -- 46
2019-07-19 10:00:00 23 13 Sudeste 19 Sudeste 0 -- -- 48
2019-07-19 09:00:00 18.1 3 Nordeste 5 Nordeste 0 -- -- 63
2019-07-19 08:00:00 13.6 0 Calma 4 Sudeste 0 -- -- 74
2019-07-19 07:00:00 12.9 0 Calma 3 Sudeste 0 -- -- 75
2019-07-19 06:00:00 13.8 0 Calma 2 Sudeste 0 -- -- 72
2019-07-19 05:00:00 14.6 2 Este 5 Noroeste 0 -- -- 71
2019-07-19 04:00:00 15.7 0 Calma 4 Este 0 -- -- 67
2019-07-19 03:00:00 16.9 0 Calma 5 Este 0 -- -- 65
2019-07-19 02:00:00 18 4 Este 10 Sudeste 0 -- -- 61
2019-07-19 01:00:00 18.9 6 Este 16 Este 0 -- -- 59
2019-07-19 00:00:00 19.9 4 Nordeste 21 Este 0 -- -- 55
2019-07-18 23:00:00 21.3 15 Este 39 Este 0 -- -- 50
2019-07-18 22:00:00 23.3 27 Este 41 Este 0 -- -- 43
2019-07-18 21:00:00 25.8 27 Este 39 Este 0 -- -- 38
2019-07-18 20:00:00 29.1 14 Norte 24 Noroeste 0 -- -- 32
2019-07-18 19:00:00 28.2 13 Noroeste 22 Noroeste 0 -- -- 36
2019-07-18 18:00:00 28.1 16 Noroeste 28 Noroeste 0 -- -- 39
2019-07-18 17:00:00 29 15 Noroeste 36 Norte 0 -- -- 37
2019-07-18 16:00:00 29.9 14 Norte 33 Norte 0 -- -- 34
2019-07-18 15:00:00 28.9 17 Norte 30 Norte 0 -- -- 38
2019-07-18 14:00:00 27 5 Sudoeste 20 Norte 0 -- -- 47
2019-07-18 13:00:00 25.2 5 Norte 18 Norte 0 -- -- 53
2019-07-18 12:00:00 23.3 7 Nordeste 12 Noroeste 0 -- -- 59
2019-07-18 11:00:00 20.1 3 Oeste 12 Este 0 -- -- 71
2019-07-18 10:00:00 17 7 Este 15 Este 0 -- -- 87
2019-07-18 09:00:00 15 8 Este 12 Este 0 -- -- 92
2019-07-18 08:00:00 13.2 2 Oeste 6 Oeste 0 -- -- 92
2019-07-18 07:00:00 12.5 5 Oeste 8 Noroeste 0 -- -- 93
2019-07-18 06:00:00 13.6 2 Sudeste 4 Sudeste 0 -- -- 91
2019-07-18 05:00:00 14 0 Calma 5 Oeste 0 -- -- 89
2019-07-18 04:00:00 14.4 5 Oeste 8 Oeste 0 -- -- 88
2019-07-18 03:00:00 16.1 0 Calma 5 Sudeste 0 -- -- 84
2019-07-18 02:00:00 16.7 4 Este 9 Este 0 -- -- 82
2019-07-18 01:00:00 17.5 3 Sudeste 16 Este 0 -- -- 78
2019-07-18 00:00:00 18.2 8 Este 15 Este 0 -- -- 77